createdAt,value
2022-09-28T00:01:21.443Z,15.75
2022-09-28T00:03:51.458Z,15.72
2022-09-28T00:06:21.952Z,15.70
2022-09-28T00:08:50.365Z,15.70
2022-09-28T00:11:20.953Z,15.71
2022-09-28T00:13:56.783Z,15.74
2022-09-28T00:16:28.858Z,15.73
2022-09-28T00:18:57.449Z,15.74
2022-09-28T00:21:30.543Z,15.70
2022-09-28T00:24:15.960Z,15.68
2022-09-28T00:26:54.000Z,15.68
2022-09-28T00:29:27.795Z,15.67
2022-09-28T00:32:02.696Z,15.66
2022-09-28T00:34:36.339Z,15.65
2022-09-28T00:37:06.021Z,15.64
2022-09-28T00:39:36.061Z,15.62
2022-09-28T00:42:11.141Z,15.62
2022-09-28T00:44:49.026Z,15.61
2022-09-28T00:47:42.774Z,15.60
2022-09-28T00:50:19.054Z,15.60
2022-09-28T00:52:47.420Z,15.61
2022-09-28T00:55:19.137Z,15.61
2022-09-28T00:57:52.260Z,15.61
2022-09-28T01:00:20.435Z,15.62
2022-09-28T01:02:49.331Z,15.62
2022-09-28T01:05:18.215Z,15.63
2022-09-28T01:07:46.794Z,15.64
2022-09-28T01:10:15.655Z,15.63
2022-09-28T01:12:43.935Z,15.64
2022-09-28T01:15:12.236Z,15.64
2022-09-28T01:18:13.503Z,15.68
2022-09-28T01:20:56.096Z,15.72
2022-09-28T01:23:42.931Z,15.74
2022-09-28T01:26:31.483Z,15.71
2022-09-28T01:29:05.843Z,15.70
2022-09-28T01:31:36.766Z,15.71
2022-09-28T01:34:14.105Z,15.72
2022-09-28T01:36:50.965Z,15.72
2022-09-28T01:39:33.185Z,15.70
2022-09-28T01:42:08.272Z,15.69
2022-09-28T01:44:40.184Z,15.70
2022-09-28T01:47:13.176Z,15.70
2022-09-28T01:49:49.233Z,15.71
2022-09-28T01:52:25.407Z,15.73
2022-09-28T01:55:21.420Z,15.76
2022-09-28T01:57:55.153Z,15.76
2022-09-28T02:00:24.580Z,15.76
2022-09-28T02:03:00.206Z,15.75
2022-09-28T02:05:37.887Z,15.73
2022-09-28T02:08:22.124Z,15.69
2022-09-28T02:11:02.684Z,15.67
2022-09-28T02:13:38.023Z,15.65
2022-09-28T02:16:21.398Z,15.65
2022-09-28T02:18:51.267Z,15.64
2022-09-28T02:21:24.679Z,15.65
2022-09-28T02:23:56.724Z,15.68
2022-09-28T02:26:31.557Z,15.68
2022-09-28T02:28:59.957Z,15.69
2022-09-28T02:31:28.611Z,15.70
2022-09-28T02:33:58.221Z,15.71
2022-09-28T02:36:27.856Z,15.72
2022-09-28T02:38:57.452Z,15.73
2022-09-28T02:41:58.301Z,15.75
2022-09-28T02:45:00.460Z,15.77
2022-09-28T02:47:51.846Z,15.78
2022-09-28T02:50:39.213Z,15.77
2022-09-28T02:53:35.651Z,15.83
2022-09-28T02:56:17.634Z,15.85
2022-09-28T02:59:05.278Z,15.87
2022-09-28T03:01:46.706Z,15.87
2022-09-28T03:04:42.669Z,15.85
2022-09-28T03:07:34.184Z,15.83
2022-09-28T03:10:28.221Z,15.82
2022-09-28T03:12:57.368Z,15.82
2022-09-28T03:15:27.396Z,15.82
2022-09-28T03:17:57.318Z,15.82
2022-09-28T03:20:29.977Z,15.81
2022-09-28T03:23:23.447Z,15.81
2022-09-28T03:25:46.619Z,15.69
2022-09-28T03:28:16.119Z,15.58
2022-09-28T03:30:44.402Z,15.56
2022-09-28T03:33:12.775Z,15.61
2022-09-28T03:35:40.980Z,15.65
2022-09-28T03:38:09.142Z,15.71
2022-09-28T03:40:39.089Z,15.75
2022-09-28T03:43:07.824Z,15.73
2022-09-28T03:45:36.250Z,15.69
2022-09-28T03:48:04.996Z,15.67
2022-09-28T03:50:35.211Z,15.66
2022-09-28T03:53:04.462Z,15.55
2022-09-28T03:55:32.788Z,15.46
2022-09-28T03:58:01.029Z,15.43
2022-09-28T04:00:30.753Z,15.43
2022-09-28T04:02:59.048Z,15.43
2022-09-28T04:05:27.444Z,15.47
2022-09-28T04:07:59.120Z,15.50
2022-09-28T04:10:27.751Z,15.53
2022-09-28T04:12:59.029Z,15.48
2022-09-28T04:15:28.055Z,15.47
2022-09-28T04:17:56.168Z,15.47
2022-09-28T04:20:46.412Z,15.50
2022-09-28T04:23:15.883Z,15.55
2022-09-28T04:25:48.021Z,15.54
2022-09-28T04:28:34.606Z,15.52
2022-09-28T04:31:02.920Z,15.58
2022-09-28T04:33:31.846Z,15.62
2022-09-28T04:36:00.815Z,15.71
2022-09-28T04:38:51.314Z,15.79
2022-09-28T04:41:18.156Z,15.81
2022-09-28T04:43:50.150Z,15.87
2022-09-28T04:46:19.127Z,15.86
2022-09-28T04:49:05.146Z,15.91
2022-09-28T04:51:44.768Z,15.90
2022-09-28T04:54:13.413Z,15.94
2022-09-28T04:56:42.492Z,15.96
2022-09-28T04:59:10.804Z,15.97
2022-09-28T05:01:43.199Z,16.00
2022-09-28T05:04:30.740Z,16.02
2022-09-28T05:07:17.439Z,16.09
2022-09-28T05:09:45.620Z,16.11
2022-09-28T05:12:13.842Z,16.07
2022-09-28T05:14:42.252Z,16.05
2022-09-28T05:17:12.859Z,16.00
2022-09-28T05:19:57.677Z,15.97
2022-09-28T05:22:25.992Z,15.97
2022-09-28T05:24:58.510Z,15.99
2022-09-28T05:27:26.876Z,15.99
2022-09-28T05:30:18.924Z,16.02
2022-09-28T05:33:05.875Z,16.09
2022-09-28T05:35:49.781Z,16.15
2022-09-28T05:38:20.917Z,16.22
2022-09-28T05:40:49.177Z,16.20
2022-09-28T05:43:17.708Z,16.17
2022-09-28T05:45:50.426Z,16.10
2022-09-28T05:48:23.504Z,16.00
2022-09-28T05:50:52.733Z,15.95
2022-09-28T05:53:21.641Z,15.97
2022-09-28T05:55:50.040Z,15.98
2022-09-28T05:58:18.325Z,16.03
2022-09-28T06:00:46.575Z,16.02
2022-09-28T06:03:15.491Z,15.98
2022-09-28T06:05:43.900Z,16.10
2022-09-28T06:08:12.424Z,16.13
2022-09-28T06:10:45.041Z,16.20
2022-09-28T06:13:13.438Z,16.18
2022-09-28T06:15:42.877Z,16.23
2022-09-28T06:18:17.392Z,16.27
2022-09-28T06:21:20.895Z,16.26
2022-09-28T06:23:49.581Z,16.26
2022-09-28T06:26:19.252Z,16.29
2022-09-28T06:28:47.689Z,16.38
2022-09-28T06:31:16.189Z,16.42
2022-09-28T06:33:50.760Z,16.44
2022-09-28T06:36:21.102Z,16.47
2022-09-28T06:38:50.877Z,16.51
2022-09-28T06:41:19.729Z,16.62
2022-09-28T06:43:48.507Z,16.74
2022-09-28T06:46:35.897Z,16.90
2022-09-28T06:49:27.195Z,16.94
2022-09-28T06:52:13.992Z,17.07
2022-09-28T06:55:05.198Z,17.14
2022-09-28T06:58:51.121Z,17.30
2022-09-28T07:01:20.107Z,17.32
2022-09-28T07:03:58.119Z,17.36
2022-09-28T07:06:48.448Z,17.42
2022-09-28T07:09:38.146Z,17.47
2022-09-28T07:12:13.391Z,17.53
2022-09-28T07:14:57.552Z,17.61
2022-09-28T07:17:28.387Z,17.60
2022-09-28T07:20:03.805Z,17.59
2022-09-28T07:22:43.111Z,17.61
2022-09-28T07:25:16.294Z,17.57
2022-09-28T07:28:05.153Z,17.55
2022-09-28T07:31:33.918Z,17.56
2022-09-28T07:34:19.031Z,17.57
2022-09-28T07:37:11.837Z,17.55
2022-09-28T07:39:59.025Z,17.55
2022-09-28T07:42:30.115Z,17.53
2022-09-28T07:44:59.088Z,17.53
2022-09-28T07:47:32.284Z,17.48
2022-09-28T07:50:18.286Z,17.50
2022-09-28T07:53:13.045Z,17.52
2022-09-28T07:56:04.024Z,17.58
2022-09-28T07:58:42.192Z,17.71
2022-09-28T08:01:40.020Z,17.85
2022-09-28T08:04:10.947Z,17.94
2022-09-28T08:06:41.165Z,18.02
2022-09-28T08:09:11.694Z,18.05
2022-09-28T08:12:29.530Z,18.06
2022-09-28T08:15:42.378Z,18.05
2022-09-28T08:18:19.744Z,18.10
2022-09-28T08:21:06.701Z,18.19
2022-09-28T08:23:35.071Z,18.25
2022-09-28T08:26:04.528Z,18.29
2022-09-28T08:28:36.007Z,18.28
2022-09-28T08:31:19.047Z,18.29
2022-09-28T08:34:41.718Z,18.25
2022-09-28T08:38:03.454Z,18.24
2022-09-28T08:41:45.783Z,18.23
2022-09-28T08:44:59.273Z,18.22
2022-09-28T08:48:22.726Z,18.24
2022-09-28T08:51:33.154Z,18.26
2022-09-28T08:54:28.460Z,18.37
2022-09-28T08:57:12.815Z,18.44
2022-09-28T08:59:49.732Z,18.53
2022-09-28T09:02:39.957Z,18.55
2022-09-28T09:05:20.717Z,18.64
2022-09-28T09:08:57.647Z,18.69
2022-09-28T09:12:05.007Z,18.73
2022-09-28T09:14:51.637Z,18.78
2022-09-28T09:17:31.626Z,18.82
2022-09-28T09:21:06.760Z,18.85
2022-09-28T09:23:57.560Z,18.95
2022-09-28T09:26:40.660Z,19.02
2022-09-28T09:29:25.780Z,19.05
2022-09-28T09:32:11.547Z,19.07
2022-09-28T09:35:22.742Z,19.11
2022-09-28T09:38:35.180Z,19.17
2022-09-28T09:42:50.053Z,19.28
2022-09-28T09:46:40.841Z,19.40
2022-09-28T09:49:30.800Z,19.45
2022-09-28T09:52:06.785Z,19.52
2022-09-28T09:55:30.303Z,19.57
2022-09-28T09:58:52.124Z,19.60
2022-09-28T10:01:40.301Z,19.60
2022-09-28T10:04:30.825Z,19.61
2022-09-28T10:07:09.380Z,19.66
2022-09-28T10:09:44.205Z,19.70
2022-09-28T10:12:31.478Z,19.76
2022-09-28T10:15:07.393Z,19.80
2022-09-28T10:17:43.304Z,19.85
2022-09-28T10:20:55.230Z,19.90
2022-09-28T10:23:42.501Z,19.94
2022-09-28T10:26:25.229Z,19.98
2022-09-28T10:29:01.339Z,20.00
2022-09-28T10:31:35.693Z,20.03
2022-09-28T10:34:10.675Z,20.05
2022-09-28T10:36:56.229Z,20.08
2022-09-28T10:39:46.185Z,20.09
2022-09-28T10:42:22.238Z,20.10
2022-09-28T10:45:19.807Z,20.11
2022-09-28T10:47:48.566Z,20.15
2022-09-28T10:50:25.473Z,20.16
2022-09-28T10:53:20.888Z,20.21
2022-09-28T10:56:20.234Z,20.25
2022-09-28T10:58:49.531Z,20.37
2022-09-28T11:01:31.518Z,20.46
2022-09-28T11:04:08.175Z,20.61
2022-09-28T11:06:40.459Z,20.66
2022-09-28T11:09:31.376Z,20.69
2022-09-28T11:12:07.397Z,20.79
2022-09-28T11:14:42.722Z,20.82
2022-09-28T11:17:36.453Z,20.82
2022-09-28T11:20:28.270Z,20.88
2022-09-28T11:23:18.813Z,20.93
2022-09-28T11:26:06.335Z,20.92
2022-09-28T11:28:39.565Z,20.93
2022-09-28T11:31:12.820Z,21.00
2022-09-28T11:34:31.021Z,21.06
2022-09-28T11:37:11.186Z,21.11
2022-09-28T11:40:10.131Z,21.15
2022-09-28T11:43:16.753Z,21.17
2022-09-28T11:46:01.483Z,21.22
2022-09-28T11:48:56.712Z,21.24
2022-09-28T11:51:31.772Z,21.24
2022-09-28T11:54:14.571Z,21.33
2022-09-28T11:56:48.886Z,21.38
2022-09-28T11:59:42.770Z,21.38
2022-09-28T12:02:24.133Z,21.40
2022-09-28T12:05:15.970Z,21.41
2022-09-28T12:07:59.445Z,21.41
2022-09-28T12:11:13.589Z,21.41
2022-09-28T12:14:41.469Z,21.43
2022-09-28T12:17:26.939Z,21.42
2022-09-28T12:20:40.283Z,21.45
2022-09-28T12:23:18.020Z,21.49
2022-09-28T12:25:53.789Z,21.56
2022-09-28T12:28:45.518Z,21.61
2022-09-28T12:31:25.670Z,21.65
2022-09-28T12:33:54.282Z,21.73
2022-09-28T12:37:19.407Z,21.80
2022-09-28T12:40:26.480Z,21.93
2022-09-28T12:43:48.355Z,21.93
2022-09-28T12:46:43.261Z,21.98
2022-09-28T12:52:37.316Z,22.23
2022-09-28T12:55:27.036Z,22.38
2022-09-28T12:58:29.287Z,22.47
2022-09-28T13:01:15.658Z,22.50
2022-09-28T13:04:13.264Z,22.52
2022-09-28T13:07:07.917Z,22.48
2022-09-28T13:09:51.151Z,22.43
2022-09-28T13:12:25.663Z,22.37
2022-09-28T13:15:25.000Z,22.31
2022-09-28T13:18:05.233Z,22.24
2022-09-28T13:20:54.586Z,22.13
2022-09-28T13:23:31.301Z,22.00
2022-09-28T13:26:17.474Z,21.89
2022-09-28T13:28:47.421Z,21.76
2022-09-28T13:31:22.986Z,21.74
2022-09-28T13:33:52.882Z,21.82
2022-09-28T13:36:30.799Z,21.80
2022-09-28T13:39:01.018Z,21.78
2022-09-28T13:41:40.647Z,21.73
2022-09-28T13:44:20.286Z,21.65
2022-09-28T13:47:20.740Z,21.58
2022-09-28T13:50:07.455Z,21.49
2022-09-28T13:53:27.184Z,21.45
2022-09-28T13:56:22.921Z,21.40
2022-09-28T13:58:58.012Z,21.38
2022-09-28T14:02:08.465Z,21.36
2022-09-28T14:04:57.862Z,21.31
2022-09-28T14:07:59.627Z,21.28
2022-09-28T14:10:53.889Z,21.27
2022-09-28T14:13:43.597Z,21.25
2022-09-28T14:16:17.999Z,21.22
2022-09-28T14:18:58.076Z,21.17
2022-09-28T14:22:14.916Z,21.20
2022-09-28T14:25:07.169Z,21.17
2022-09-28T14:28:07.309Z,21.17
2022-09-28T14:30:41.641Z,21.18
2022-09-28T14:33:38.981Z,21.19
2022-09-28T14:36:47.910Z,21.17
2022-09-28T14:39:44.924Z,21.10
2022-09-28T14:42:22.340Z,21.01
2022-09-28T14:45:06.207Z,20.92
2022-09-28T14:47:41.916Z,20.83
2022-09-28T14:50:29.889Z,20.77
2022-09-28T14:53:14.285Z,20.73
2022-09-28T14:55:59.905Z,20.69
2022-09-28T14:58:30.051Z,20.66
2022-09-28T15:01:16.136Z,20.63
2022-09-28T15:03:48.747Z,20.56
2022-09-28T15:06:19.350Z,20.52
2022-09-28T15:08:47.690Z,20.46
2022-09-28T15:11:21.670Z,20.43
2022-09-28T15:14:02.708Z,20.37
2022-09-28T15:16:31.493Z,20.32
2022-09-28T15:19:21.118Z,20.28
2022-09-28T15:21:51.400Z,20.20
2022-09-28T15:24:33.729Z,20.15
2022-09-28T15:27:19.181Z,20.09
2022-09-28T15:30:23.119Z,20.03
2022-09-28T15:32:55.169Z,19.95
2022-09-28T15:35:27.676Z,19.93
2022-09-28T15:37:56.094Z,19.88
2022-09-28T15:40:38.174Z,19.82
2022-09-28T15:43:27.175Z,19.76
2022-09-28T15:46:06.834Z,19.63
2022-09-28T15:49:00.094Z,19.59
2022-09-28T15:51:30.049Z,19.51
2022-09-28T15:54:09.612Z,19.40
2022-09-28T15:57:02.971Z,19.36
2022-09-28T15:59:41.428Z,19.26
2022-09-28T16:02:26.152Z,19.18
2022-09-28T16:04:59.193Z,19.12
2022-09-28T16:07:33.890Z,19.08
2022-09-28T16:10:14.198Z,19.05
2022-09-28T16:12:56.708Z,19.01
2022-09-28T16:15:26.289Z,18.97
2022-09-28T16:18:01.615Z,18.94
2022-09-28T16:20:36.623Z,18.89
2022-09-28T16:23:17.093Z,18.82
2022-09-28T16:26:27.063Z,18.73
2022-09-28T16:28:55.648Z,18.61
2022-09-28T16:31:30.226Z,18.54
2022-09-28T16:34:20.191Z,18.47
2022-09-28T16:36:49.858Z,18.38
2022-09-28T16:39:19.692Z,18.34
2022-09-28T16:41:54.055Z,18.30
2022-09-28T16:44:32.884Z,18.25
2022-09-28T16:47:01.428Z,18.18
2022-09-28T16:49:32.373Z,18.13
2022-09-28T16:52:02.619Z,18.09
2022-09-28T16:54:49.334Z,18.05
2022-09-28T16:57:17.784Z,18.00
2022-09-28T16:59:46.106Z,17.97
2022-09-28T17:05:13.177Z,17.91
2022-09-28T17:07:43.436Z,17.89
2022-09-28T17:10:49.792Z,17.88
2022-09-28T17:13:31.737Z,17.86
2022-09-28T17:16:04.480Z,17.84
2022-09-28T17:18:34.073Z,17.81
2022-09-28T17:21:05.108Z,17.78
2022-09-28T17:23:34.004Z,17.74
2022-09-28T17:26:03.065Z,17.70
2022-09-28T17:28:36.907Z,17.64
2022-09-28T17:31:10.227Z,17.59
2022-09-28T17:33:38.629Z,17.54
2022-09-28T17:36:09.962Z,17.49
2022-09-28T17:38:38.508Z,17.47
2022-09-28T17:41:06.947Z,17.44
2022-09-28T17:43:35.355Z,17.46
2022-09-28T17:46:05.899Z,17.46
2022-09-28T17:48:34.793Z,17.46
2022-09-28T17:51:04.070Z,17.46
2022-09-28T17:53:32.421Z,17.47
2022-09-28T17:56:01.431Z,17.47
2022-09-28T17:58:29.770Z,17.48
2022-09-28T18:00:58.229Z,17.49
2022-09-28T18:03:27.105Z,17.48
2022-09-28T18:06:07.532Z,17.48
2022-09-28T18:08:37.334Z,17.48
2022-09-28T18:11:06.483Z,17.49
2022-09-28T18:13:35.205Z,17.46
2022-09-28T18:16:05.254Z,17.48
2022-09-28T18:18:36.953Z,17.49
2022-09-28T18:21:09.312Z,17.48
2022-09-28T18:23:39.446Z,17.48
2022-09-28T18:26:13.504Z,17.48
2022-09-28T18:28:42.419Z,17.48
2022-09-28T18:31:14.558Z,17.48
2022-09-28T18:33:43.533Z,17.49
2022-09-28T18:36:12.170Z,17.49
2022-09-28T18:38:40.842Z,17.50
2022-09-28T18:41:13.669Z,17.50
2022-09-28T18:43:51.217Z,17.48
2022-09-28T18:46:19.844Z,17.48
2022-09-28T18:48:48.341Z,17.46
2022-09-28T18:51:16.961Z,17.43
2022-09-28T18:53:45.578Z,17.39
2022-09-28T18:56:21.301Z,17.35
2022-09-28T18:58:51.940Z,17.26
2022-09-28T19:01:30.832Z,17.23
2022-09-28T19:04:02.179Z,17.15
2022-09-28T19:06:32.637Z,17.11
2022-09-28T19:09:01.849Z,17.07
2022-09-28T19:11:30.423Z,17.02
2022-09-28T19:13:59.182Z,16.99
2022-09-28T19:16:31.282Z,16.98
2022-09-28T19:19:02.416Z,16.98
2022-09-28T19:21:31.461Z,16.98
2022-09-28T19:24:04.195Z,16.98
2022-09-28T19:26:34.037Z,16.97
2022-09-28T19:29:03.175Z,16.95
2022-09-28T19:31:32.703Z,16.90
2022-09-28T19:34:01.329Z,16.89
2022-09-28T19:36:31.106Z,16.84
2022-09-28T19:39:04.160Z,16.83
2022-09-28T19:41:44.816Z,16.80
2022-09-28T19:44:27.865Z,16.75
2022-09-28T19:47:04.329Z,16.70
2022-09-28T19:49:37.288Z,16.65
2022-09-28T19:52:16.068Z,16.62
2022-09-28T19:54:52.231Z,16.55
2022-09-28T19:57:20.598Z,16.52
2022-09-28T19:59:52.512Z,16.47
2022-09-28T20:02:21.900Z,16.44
2022-09-28T20:04:50.624Z,16.40
2022-09-28T20:07:19.106Z,16.38
2022-09-28T20:09:47.609Z,16.36
2022-09-28T20:12:16.074Z,16.35
2022-09-28T20:14:44.572Z,16.35
2022-09-28T20:17:13.259Z,16.33
2022-09-28T20:19:41.739Z,16.34
2022-09-28T20:22:10.159Z,16.33
2022-09-28T20:24:38.583Z,16.34
2022-09-28T20:27:07.079Z,16.33
2022-09-28T20:29:35.560Z,16.31
2022-09-28T20:32:04.261Z,16.28
2022-09-28T20:34:34.243Z,16.24
2022-09-28T20:37:02.744Z,16.21
2022-09-28T20:39:31.217Z,16.17
2022-09-28T20:41:59.500Z,16.12
2022-09-28T20:44:27.980Z,16.07
2022-09-28T20:46:56.903Z,15.99
2022-09-28T20:49:27.377Z,15.93
2022-09-28T20:51:55.898Z,15.89
2022-09-28T20:54:24.446Z,15.85
2022-09-28T20:56:53.020Z,15.82
2022-09-28T20:59:24.520Z,15.80
2022-09-28T21:01:53.012Z,15.79
2022-09-28T21:04:21.524Z,15.77
2022-09-28T21:06:49.919Z,15.75
2022-09-28T21:09:18.418Z,15.71
2022-09-28T21:11:48.332Z,15.66
2022-09-28T21:14:17.456Z,15.60
2022-09-28T21:16:46.011Z,15.57
2022-09-28T21:19:14.491Z,15.53
2022-09-28T21:21:42.972Z,15.51
2022-09-28T21:24:11.501Z,15.45
2022-09-28T21:26:39.912Z,15.46
2022-09-28T21:29:13.780Z,15.44
2022-09-28T21:31:48.159Z,15.41
2022-09-28T21:34:19.660Z,15.44
2022-09-28T21:36:51.513Z,15.40
2022-09-28T21:39:20.544Z,15.40
2022-09-28T21:41:50.176Z,15.40
2022-09-28T21:44:18.783Z,15.39
2022-09-28T21:46:47.507Z,15.38
2022-09-28T21:49:15.945Z,15.38
2022-09-28T21:51:47.227Z,15.37
2022-09-28T21:54:15.672Z,15.34
2022-09-28T21:56:44.190Z,15.30
2022-09-28T21:59:12.610Z,15.29
2022-09-28T22:01:42.894Z,15.30
2022-09-28T22:04:11.415Z,15.30
2022-09-28T22:06:40.084Z,15.29
2022-09-28T22:09:08.692Z,15.27
2022-09-28T22:11:37.147Z,15.24
2022-09-28T22:14:05.565Z,15.23
2022-09-28T22:16:33.921Z,15.19
2022-09-28T22:19:02.400Z,15.22
2022-09-28T22:21:33.517Z,15.21
2022-09-28T22:24:05.489Z,15.19
2022-09-28T22:26:36.840Z,15.20
2022-09-28T22:29:09.070Z,15.19
2022-09-28T22:31:41.806Z,15.18
2022-09-28T22:34:10.249Z,15.23
2022-09-28T22:36:38.766Z,15.27
2022-09-28T22:39:07.351Z,15.33
2022-09-28T22:41:35.760Z,15.39
2022-09-28T22:44:04.210Z,15.44
2022-09-28T22:46:33.589Z,15.46
2022-09-28T22:49:02.317Z,15.49
2022-09-28T22:51:31.555Z,15.52
2022-09-28T22:54:00.161Z,15.54
2022-09-28T22:56:29.869Z,15.53
2022-09-28T22:58:58.166Z,15.51
2022-09-28T23:01:30.027Z,15.51
2022-09-28T23:03:59.734Z,15.53
2022-09-28T23:06:30.957Z,15.56
2022-09-28T23:09:00.365Z,15.58
2022-09-28T23:11:29.578Z,15.57
2022-09-28T23:13:59.729Z,15.56
2022-09-28T23:16:28.336Z,15.55
2022-09-28T23:18:57.490Z,15.52
2022-09-28T23:21:28.020Z,15.42
2022-09-28T23:24:01.255Z,15.20
2022-09-28T23:26:33.029Z,15.01
2022-09-28T23:29:01.744Z,14.91
2022-09-28T23:31:32.470Z,14.89
2022-09-28T23:34:06.736Z,14.86
2022-09-28T23:36:35.464Z,14.88
2022-09-28T23:39:04.665Z,14.89
2022-09-28T23:41:33.040Z,14.91
2022-09-28T23:44:01.723Z,14.93
2022-09-28T23:46:30.274Z,14.95
2022-09-28T23:48:58.806Z,14.98
2022-09-28T23:51:27.269Z,15.00
2022-09-28T23:53:55.612Z,14.97
2022-09-28T23:56:24.044Z,15.01
2022-09-28T23:58:52.445Z,15.02
